createdAt,value
2022-10-08T00:02:20.743Z,17.97
2022-10-08T00:04:52.405Z,17.93
2022-10-08T00:07:24.453Z,19.50
2022-10-08T00:09:56.246Z,19.07
2022-10-08T00:12:27.949Z,19.58
2022-10-08T00:14:59.691Z,18.43
2022-10-08T00:17:31.364Z,20.10
2022-10-08T00:20:03.296Z,20.87
2022-10-08T00:22:35.130Z,19.63
2022-10-08T00:25:08.486Z,21.03
2022-10-08T00:27:40.139Z,20.00
2022-10-08T00:30:12.679Z,19.37
2022-10-08T00:32:45.249Z,19.40
2022-10-08T00:35:17.223Z,21.20
2022-10-08T00:37:49.929Z,20.60
2022-10-08T00:40:21.765Z,20.73
2022-10-08T00:42:53.595Z,20.80
2022-10-08T00:45:25.551Z,18.37
2022-10-08T00:47:58.571Z,18.63
2022-10-08T00:50:35.901Z,19.77
2022-10-08T00:53:10.028Z,18.87
2022-10-08T00:55:43.974Z,20.80
2022-10-08T00:58:21.390Z,20.20
2022-10-08T01:00:53.856Z,19.00
2022-10-08T01:03:25.989Z,18.70
2022-10-08T01:06:30.636Z,19.13
2022-10-08T01:09:18.695Z,18.30
2022-10-08T01:12:06.057Z,19.20
2022-10-08T01:14:58.022Z,16.97
2022-10-08T01:17:32.562Z,18.33
2022-10-08T01:20:29.287Z,17.00
2022-10-08T01:23:36.549Z,16.47
2022-10-08T01:26:45.880Z,17.03
2022-10-08T01:29:24.643Z,16.60
2022-10-08T01:32:03.329Z,17.80
2022-10-08T01:34:50.777Z,19.30
2022-10-08T01:37:31.870Z,18.53
2022-10-08T01:40:09.900Z,18.47
2022-10-08T01:42:41.859Z,16.73
2022-10-08T01:45:19.019Z,18.60
2022-10-08T01:47:52.407Z,17.20
2022-10-08T01:50:48.343Z,17.93
2022-10-08T01:53:23.174Z,16.90
2022-10-08T01:55:57.076Z,17.57
2022-10-08T01:59:02.898Z,16.50
2022-10-08T02:01:40.928Z,16.60
2022-10-08T02:04:31.059Z,18.30
2022-10-08T02:07:05.746Z,16.93
2022-10-08T02:09:44.878Z,15.27
2022-10-08T02:12:16.967Z,16.17
2022-10-08T02:14:51.662Z,16.00
2022-10-08T02:17:45.043Z,15.07
2022-10-08T02:20:20.728Z,15.17
2022-10-08T02:23:06.642Z,15.17
2022-10-08T02:25:51.662Z,15.70
2022-10-08T02:28:38.392Z,14.65
2022-10-08T02:31:20.993Z,14.63
2022-10-08T02:34:08.110Z,14.40
2022-10-08T02:36:43.848Z,14.97
2022-10-08T02:39:17.259Z,15.00
2022-10-08T02:42:00.171Z,15.37
2022-10-08T02:45:00.364Z,15.40
2022-10-08T02:47:35.240Z,14.00
2022-10-08T02:50:12.581Z,14.33
2022-10-08T02:52:46.326Z,14.63
2022-10-08T02:55:26.716Z,13.98
2022-10-08T02:58:02.980Z,13.83
2022-10-08T03:00:41.452Z,15.07
2022-10-08T03:03:15.825Z,14.67
2022-10-08T03:05:52.614Z,13.43
2022-10-08T03:08:24.627Z,13.70
2022-10-08T03:10:57.315Z,15.53
2022-10-08T03:13:30.207Z,12.80
2022-10-08T03:16:03.532Z,13.67
2022-10-08T03:18:38.019Z,13.87
2022-10-08T03:21:15.451Z,13.27
2022-10-08T03:23:47.378Z,13.10
2022-10-08T03:26:19.121Z,13.50
2022-10-08T03:28:53.213Z,12.20
2022-10-08T03:31:24.930Z,14.43
2022-10-08T03:33:57.562Z,12.90
2022-10-08T03:36:30.874Z,12.80
2022-10-08T03:39:02.640Z,13.80
2022-10-08T03:41:34.459Z,14.30
2022-10-08T03:44:10.674Z,12.97
2022-10-08T03:46:42.494Z,14.13
2022-10-08T03:49:14.246Z,12.80
2022-10-08T03:51:45.919Z,13.80
2022-10-08T03:54:17.636Z,13.50
2022-10-08T03:56:49.361Z,12.67
2022-10-08T03:59:21.062Z,12.50
2022-10-08T04:01:52.934Z,11.60
2022-10-08T04:04:25.841Z,12.77
2022-10-08T04:06:57.883Z,11.63
2022-10-08T04:09:29.663Z,14.50
2022-10-08T04:12:01.391Z,12.80
2022-10-08T04:14:33.096Z,13.00
2022-10-08T04:17:04.847Z,12.83
2022-10-08T04:19:36.530Z,13.53
2022-10-08T04:22:08.215Z,13.07
2022-10-08T04:24:40.012Z,14.17
2022-10-08T04:27:11.719Z,13.30
2022-10-08T04:29:43.419Z,13.90
2022-10-08T04:32:15.843Z,13.67
2022-10-08T04:34:47.622Z,12.27
2022-10-08T04:37:20.282Z,12.57
2022-10-08T04:39:52.046Z,11.43
2022-10-08T04:42:23.775Z,12.48
2022-10-08T04:44:55.478Z,11.10
2022-10-08T04:47:27.195Z,13.23
2022-10-08T04:49:58.968Z,12.60
2022-10-08T04:52:31.890Z,11.87
2022-10-08T04:55:03.817Z,11.77
2022-10-08T04:57:35.533Z,12.87
2022-10-08T05:00:18.549Z,13.33
2022-10-08T05:02:51.213Z,13.27
2022-10-08T05:05:23.938Z,15.40
2022-10-08T05:07:56.795Z,14.57
2022-10-08T05:10:28.540Z,13.23
2022-10-08T05:13:00.475Z,13.77
2022-10-08T05:15:35.787Z,12.47
2022-10-08T05:18:07.626Z,13.13
2022-10-08T05:20:39.355Z,10.67
2022-10-08T05:23:11.132Z,12.50
2022-10-08T05:25:43.991Z,14.37
2022-10-08T05:28:15.687Z,14.23
2022-10-08T05:30:47.508Z,12.33
2022-10-08T05:33:19.271Z,12.87
2022-10-08T05:35:50.953Z,12.60
2022-10-08T05:38:22.955Z,11.70
2022-10-08T05:40:54.628Z,12.10
2022-10-08T05:43:26.411Z,13.70
2022-10-08T05:45:58.135Z,13.20
2022-10-08T05:48:29.887Z,13.50
2022-10-08T05:51:06.887Z,13.07
2022-10-08T05:53:40.570Z,13.33
2022-10-08T05:56:13.315Z,12.20
2022-10-08T05:58:45.530Z,14.50
2022-10-08T06:01:31.278Z,13.67
2022-10-08T06:04:09.102Z,13.67
2022-10-08T06:06:42.903Z,12.70
2022-10-08T06:09:20.068Z,13.17
2022-10-08T06:11:52.934Z,12.63
2022-10-08T06:14:24.899Z,13.20
2022-10-08T06:16:56.638Z,13.40
2022-10-08T06:19:28.427Z,12.90
2022-10-08T06:22:00.165Z,13.90
2022-10-08T06:24:32.151Z,13.60
2022-10-08T06:27:04.000Z,13.37
2022-10-08T06:29:35.763Z,12.60
2022-10-08T06:32:07.547Z,14.30
2022-10-08T06:34:39.237Z,14.20
2022-10-08T06:37:10.935Z,13.13
2022-10-08T06:39:47.549Z,13.50
2022-10-08T06:42:20.081Z,12.27
2022-10-08T06:44:51.819Z,11.30
2022-10-08T06:47:23.509Z,11.60
2022-10-08T06:49:55.151Z,11.70
2022-10-08T06:52:27.187Z,13.07
2022-10-08T06:54:58.842Z,13.57
2022-10-08T06:57:31.182Z,12.07
2022-10-08T07:00:02.883Z,12.07
2022-10-08T07:02:34.613Z,12.83
2022-10-08T07:05:06.980Z,12.10
2022-10-08T07:07:38.671Z,10.20
2022-10-08T07:10:10.602Z,10.57
2022-10-08T07:12:42.399Z,9.10
2022-10-08T07:15:14.220Z,10.27
2022-10-08T07:17:45.937Z,12.20
2022-10-08T07:20:17.738Z,11.77
2022-10-08T07:22:49.864Z,10.30
2022-10-08T07:25:21.807Z,9.27
2022-10-08T07:27:53.455Z,9.13
2022-10-08T07:30:25.335Z,9.80
2022-10-08T07:33:00.223Z,9.00
2022-10-08T07:35:31.933Z,8.53
2022-10-08T07:38:03.718Z,8.57
2022-10-08T07:40:35.887Z,9.17
2022-10-08T07:43:07.622Z,8.33
2022-10-08T07:45:44.810Z,8.40
2022-10-08T07:48:18.960Z,8.80
2022-10-08T07:50:50.716Z,8.13
2022-10-08T07:53:22.509Z,6.90
2022-10-08T07:55:57.491Z,9.27
2022-10-08T07:58:29.265Z,8.03
2022-10-08T08:01:03.457Z,8.00
2022-10-08T08:03:35.815Z,9.40
2022-10-08T08:06:13.205Z,7.77
2022-10-08T08:08:46.538Z,7.10
2022-10-08T08:11:20.880Z,7.27
2022-10-08T08:13:53.143Z,6.87
2022-10-08T08:16:26.670Z,8.00
2022-10-08T08:19:01.334Z,6.40
2022-10-08T08:21:35.626Z,7.23
2022-10-08T08:24:10.575Z,7.10
2022-10-08T08:26:43.676Z,5.87
2022-10-08T08:29:19.093Z,6.43
2022-10-08T08:31:51.111Z,6.13
2022-10-08T08:34:24.337Z,5.60
2022-10-08T08:36:56.168Z,5.80
2022-10-08T08:39:29.458Z,5.87
2022-10-08T08:42:13.643Z,5.73
2022-10-08T08:44:55.327Z,5.72
2022-10-08T08:47:40.986Z,5.57
2022-10-08T08:50:33.803Z,5.70
2022-10-08T08:53:08.680Z,5.40
2022-10-08T08:55:43.835Z,5.47
2022-10-08T08:58:34.834Z,6.20
2022-10-08T09:01:09.528Z,4.90
2022-10-08T09:03:54.883Z,6.07
2022-10-08T09:06:26.983Z,4.43
2022-10-08T09:09:01.863Z,5.20
2022-10-08T09:11:33.810Z,4.67
2022-10-08T09:14:21.176Z,4.67
2022-10-08T09:16:54.617Z,4.70
2022-10-08T09:19:26.395Z,5.43
2022-10-08T09:21:58.154Z,4.43
2022-10-08T09:24:29.843Z,5.27
2022-10-08T09:27:01.826Z,4.83
2022-10-08T09:29:34.230Z,4.57
2022-10-08T09:32:07.362Z,4.13
2022-10-08T09:34:39.112Z,3.67
2022-10-08T09:37:25.150Z,4.10
2022-10-08T09:40:27.113Z,4.30
2022-10-08T09:43:25.494Z,4.23
2022-10-08T09:45:58.188Z,4.40
2022-10-08T09:48:30.938Z,4.27
2022-10-08T09:51:05.312Z,3.50
2022-10-08T09:53:41.595Z,3.63
2022-10-08T09:56:14.720Z,4.00
2022-10-08T09:59:07.016Z,4.10
2022-10-08T10:01:45.993Z,4.07
2022-10-08T10:04:38.661Z,3.93
2022-10-08T10:07:10.335Z,3.77
2022-10-08T10:09:46.418Z,3.60
2022-10-08T10:12:18.032Z,3.80
2022-10-08T10:15:04.848Z,3.37
2022-10-08T10:17:43.196Z,3.63
2022-10-08T10:20:23.500Z,3.60
2022-10-08T10:23:26.250Z,3.60
2022-10-08T10:26:06.828Z,3.30
2022-10-08T10:28:44.985Z,2.87
2022-10-08T10:31:25.266Z,2.97
2022-10-08T10:34:12.409Z,2.80
2022-10-08T10:37:02.076Z,3.43
2022-10-08T10:39:42.983Z,3.20
2022-10-08T10:42:22.935Z,3.07
2022-10-08T10:45:08.742Z,3.60
2022-10-08T10:47:40.819Z,3.77
2022-10-08T10:50:18.870Z,3.70
2022-10-08T10:53:22.004Z,2.97
2022-10-08T10:56:35.154Z,3.33
2022-10-08T10:59:31.022Z,3.03
2022-10-08T11:02:14.871Z,3.37
2022-10-08T11:05:22.774Z,3.13
2022-10-08T11:08:20.486Z,3.05
2022-10-08T11:11:12.028Z,4.97
2022-10-08T11:13:58.688Z,4.13
2022-10-08T11:16:41.180Z,3.77
2022-10-08T11:19:39.221Z,4.13
2022-10-08T11:22:32.271Z,3.07
2022-10-08T11:25:16.150Z,3.60
2022-10-08T11:28:12.778Z,2.97
2022-10-08T11:31:03.760Z,3.13
2022-10-08T11:33:37.049Z,3.43
2022-10-08T11:36:14.947Z,3.90
2022-10-08T11:39:24.316Z,3.27
2022-10-08T11:42:15.195Z,3.87
2022-10-08T11:44:47.098Z,3.43
2022-10-08T11:47:44.114Z,3.50
2022-10-08T11:50:36.085Z,3.10
2022-10-08T11:53:10.807Z,3.33
2022-10-08T11:55:53.866Z,3.20
2022-10-08T11:58:32.523Z,3.00
2022-10-08T12:01:06.736Z,3.27
2022-10-08T12:03:41.442Z,3.03
2022-10-08T12:06:28.439Z,3.28
2022-10-08T12:09:06.552Z,3.00
2022-10-08T12:11:38.249Z,5.83
2022-10-08T12:14:13.264Z,2.80
2022-10-08T12:16:50.740Z,3.67
2022-10-08T12:19:38.524Z,2.70
2022-10-08T12:22:17.628Z,2.80
2022-10-08T12:24:57.710Z,3.20
2022-10-08T12:27:32.264Z,2.57
2022-10-08T12:30:10.533Z,3.00
2022-10-08T12:32:42.209Z,3.40
2022-10-08T12:35:38.773Z,3.60
2022-10-08T12:38:28.771Z,2.80
2022-10-08T12:41:26.739Z,3.23
2022-10-08T12:44:28.055Z,3.60
2022-10-08T12:47:22.435Z,2.77
2022-10-08T12:50:04.799Z,2.30
2022-10-08T12:52:36.893Z,2.83
2022-10-08T12:55:16.562Z,3.17
2022-10-08T12:57:50.479Z,2.57
2022-10-08T13:00:28.422Z,2.60
2022-10-08T13:03:00.793Z,3.05
2022-10-08T13:05:38.804Z,2.90
2022-10-08T13:08:30.671Z,3.60
2022-10-08T13:11:14.468Z,3.23
2022-10-08T13:13:50.771Z,2.30
2022-10-08T13:16:25.329Z,2.70
2022-10-08T13:18:58.728Z,2.37
2022-10-08T13:21:36.701Z,3.00
2022-10-08T13:24:11.379Z,1.93
2022-10-08T13:26:54.805Z,3.07
2022-10-08T13:29:27.986Z,2.93
2022-10-08T13:32:13.766Z,2.40
2022-10-08T13:34:48.286Z,2.83
2022-10-08T13:37:22.995Z,2.77
2022-10-08T13:39:59.043Z,2.10
2022-10-08T13:42:39.637Z,2.90
2022-10-08T13:45:27.066Z,2.47
2022-10-08T13:47:59.221Z,2.00
2022-10-08T13:50:31.046Z,2.00
2022-10-08T13:53:04.376Z,2.40
2022-10-08T13:55:37.033Z,2.17
2022-10-08T13:58:11.759Z,1.77
2022-10-08T14:00:45.686Z,1.80
2022-10-08T14:03:18.183Z,2.40
2022-10-08T14:05:49.908Z,1.93
2022-10-08T14:08:27.527Z,1.70
2022-10-08T14:11:00.303Z,2.47
2022-10-08T14:13:32.064Z,2.40
2022-10-08T14:16:03.843Z,2.53
2022-10-08T14:18:35.564Z,2.20
2022-10-08T14:21:07.379Z,2.50
2022-10-08T14:23:39.043Z,2.40
2022-10-08T14:26:12.884Z,2.60
2022-10-08T14:28:44.653Z,3.13
2022-10-08T14:31:16.554Z,2.23
2022-10-08T14:33:48.521Z,2.40
2022-10-08T14:36:22.578Z,2.03
2022-10-08T14:38:54.295Z,1.90
2022-10-08T14:41:26.370Z,2.07
2022-10-08T14:43:58.220Z,1.93
2022-10-08T14:46:30.005Z,2.23
2022-10-08T14:49:04.757Z,2.63
2022-10-08T14:51:39.690Z,2.20
2022-10-08T14:54:11.776Z,2.15
2022-10-08T14:56:43.601Z,2.33
2022-10-08T14:59:15.508Z,1.80
2022-10-08T15:01:47.543Z,2.40
2022-10-08T15:04:19.375Z,2.30
2022-10-08T15:06:51.202Z,1.90
2022-10-08T15:09:22.959Z,2.07
2022-10-08T15:11:54.711Z,3.13
2022-10-08T15:14:26.411Z,2.00
2022-10-08T15:16:58.112Z,2.57
2022-10-08T15:19:29.791Z,1.90
2022-10-08T15:22:01.618Z,2.27
2022-10-08T15:24:33.367Z,2.27
2022-10-08T15:27:05.069Z,2.53
2022-10-08T15:29:37.028Z,4.07
2022-10-08T15:32:08.834Z,2.53
2022-10-08T15:34:40.595Z,2.20
2022-10-08T15:37:12.340Z,1.67
2022-10-08T15:39:44.248Z,1.83
2022-10-08T15:42:16.007Z,2.23
2022-10-08T15:44:48.851Z,1.67
2022-10-08T15:47:20.563Z,1.63
2022-10-08T15:49:52.527Z,1.73
2022-10-08T15:52:24.239Z,1.40
2022-10-08T15:54:55.958Z,1.67
2022-10-08T15:57:27.740Z,1.67
2022-10-08T16:00:00.483Z,1.70
2022-10-08T16:02:32.276Z,1.70
2022-10-08T16:05:04.379Z,1.63
2022-10-08T16:07:36.434Z,1.57
2022-10-08T16:10:08.329Z,1.90
2022-10-08T16:12:40.101Z,1.20
2022-10-08T16:15:11.996Z,1.40
2022-10-08T16:17:43.672Z,1.60
2022-10-08T16:20:15.413Z,1.47
2022-10-08T16:22:47.290Z,1.47
2022-10-08T16:25:19.201Z,1.50
2022-10-08T16:27:51.051Z,1.30
2022-10-08T16:30:22.801Z,1.47
2022-10-08T16:32:54.716Z,1.50
2022-10-08T16:35:26.416Z,1.77
2022-10-08T16:37:59.128Z,1.87
2022-10-08T16:40:30.887Z,1.80
2022-10-08T16:43:02.643Z,1.80
2022-10-08T16:45:39.218Z,1.60
2022-10-08T16:48:10.926Z,1.93
2022-10-08T16:50:42.644Z,1.97
2022-10-08T16:53:14.695Z,2.33
2022-10-08T16:55:46.385Z,1.90
2022-10-08T16:58:18.126Z,1.90
2022-10-08T17:00:49.856Z,1.70
2022-10-08T17:03:21.698Z,1.47
2022-10-08T17:05:53.368Z,1.53
2022-10-08T17:08:25.139Z,1.83
2022-10-08T17:10:56.912Z,2.20
2022-10-08T17:13:28.651Z,1.77
2022-10-08T17:16:02.870Z,2.30
2022-10-08T17:18:35.731Z,1.67
2022-10-08T17:21:07.527Z,2.10
2022-10-08T17:23:39.627Z,1.90
2022-10-08T17:26:14.155Z,2.37
2022-10-08T17:28:47.932Z,2.00
2022-10-08T17:31:28.961Z,1.63
2022-10-08T17:34:01.744Z,2.83
2022-10-08T17:36:36.234Z,2.50
2022-10-08T17:39:11.169Z,1.83
2022-10-08T17:41:43.887Z,2.67
2022-10-08T17:44:15.564Z,2.33
2022-10-08T17:46:48.268Z,2.15
2022-10-08T17:49:20.714Z,2.97
2022-10-08T17:51:52.471Z,2.53
2022-10-08T17:54:24.411Z,2.60
2022-10-08T17:56:56.174Z,2.67
2022-10-08T17:59:28.746Z,2.60
2022-10-08T18:02:00.554Z,2.20
2022-10-08T18:04:32.402Z,2.20
2022-10-08T18:07:04.063Z,2.63
2022-10-08T18:09:35.944Z,1.80
2022-10-08T18:12:07.722Z,2.00
2022-10-08T18:14:39.503Z,2.63
2022-10-08T18:17:11.167Z,2.60
2022-10-08T18:19:42.889Z,2.43
2022-10-08T18:22:15.355Z,2.50
2022-10-08T18:24:47.266Z,2.87
2022-10-08T18:27:19.063Z,2.40
2022-10-08T18:29:52.785Z,3.10
2022-10-08T18:32:24.568Z,2.22
2022-10-08T18:34:57.326Z,2.30
2022-10-08T18:37:29.108Z,3.17
2022-10-08T18:40:00.833Z,1.83
2022-10-08T18:42:32.834Z,2.37
2022-10-08T18:45:04.939Z,2.60
2022-10-08T18:47:36.666Z,2.60
2022-10-08T18:50:08.816Z,2.30
2022-10-08T18:52:40.481Z,2.80
2022-10-08T18:55:12.312Z,2.90
2022-10-08T18:57:44.195Z,2.27
2022-10-08T19:00:16.054Z,2.33
2022-10-08T19:02:48.180Z,2.30
2022-10-08T19:05:20.197Z,2.40
2022-10-08T19:07:51.930Z,2.30
2022-10-08T19:10:24.279Z,2.40
2022-10-08T19:12:55.934Z,2.57
2022-10-08T19:15:27.802Z,2.73
2022-10-08T19:17:59.479Z,2.53
2022-10-08T19:20:32.166Z,2.80
2022-10-08T19:23:04.134Z,2.90
2022-10-08T19:25:35.932Z,2.83
2022-10-08T19:28:07.738Z,2.70
2022-10-08T19:30:39.588Z,2.70
2022-10-08T19:33:11.363Z,3.03
2022-10-08T19:35:43.016Z,3.80
2022-10-08T19:38:14.707Z,2.63
2022-10-08T19:40:46.491Z,3.20
2022-10-08T19:43:18.199Z,3.27
2022-10-08T19:45:49.851Z,3.63
2022-10-08T19:48:21.501Z,3.10
2022-10-08T19:50:53.194Z,3.27
2022-10-08T19:53:25.100Z,4.27
2022-10-08T19:55:56.751Z,3.10
2022-10-08T19:58:28.496Z,4.07
2022-10-08T20:01:01.616Z,4.03
2022-10-08T20:03:33.916Z,3.10
2022-10-08T20:06:08.983Z,3.30
2022-10-08T20:08:40.837Z,3.03
2022-10-08T20:11:17.902Z,2.97
2022-10-08T20:13:51.196Z,2.67
2022-10-08T20:16:35.091Z,3.73
2022-10-08T20:19:19.269Z,2.87
2022-10-08T20:21:53.543Z,2.67
2022-10-08T20:24:25.318Z,3.03
2022-10-08T20:26:57.021Z,2.67
2022-10-08T20:29:30.988Z,4.37
2022-10-08T20:32:02.967Z,5.73
2022-10-08T20:34:34.738Z,7.40
2022-10-08T20:37:07.480Z,12.40
2022-10-08T20:39:39.211Z,8.60
2022-10-08T20:42:10.910Z,6.33
2022-10-08T20:44:45.123Z,7.00
2022-10-08T20:47:16.833Z,4.78
2022-10-08T20:49:50.828Z,4.30
2022-10-08T20:52:22.562Z,4.17
2022-10-08T20:54:58.605Z,5.47
2022-10-08T20:57:30.661Z,3.03
2022-10-08T21:00:02.525Z,9.80
2022-10-08T21:02:35.258Z,13.80
2022-10-08T21:05:07.189Z,14.77
2022-10-08T21:07:40.358Z,9.10
2022-10-08T21:10:12.078Z,9.87
2022-10-08T21:12:44.889Z,8.23
2022-10-08T21:15:16.861Z,9.02
2022-10-08T21:17:48.595Z,8.13
2022-10-08T21:20:20.627Z,8.40
2022-10-08T21:22:52.920Z,8.33
2022-10-08T21:25:24.734Z,8.20
2022-10-08T21:27:56.803Z,6.40
2022-10-08T21:30:28.572Z,6.13
2022-10-08T21:33:00.285Z,6.43
2022-10-08T21:35:35.248Z,6.97
2022-10-08T21:38:06.934Z,7.53
2022-10-08T21:40:38.779Z,7.70
2022-10-08T21:43:12.583Z,8.03
2022-10-08T21:45:53.769Z,7.67
2022-10-08T21:48:28.322Z,7.40
2022-10-08T21:51:09.242Z,6.40
2022-10-08T21:53:44.941Z,6.90
2022-10-08T21:56:19.611Z,6.03
2022-10-08T21:58:58.076Z,6.03
2022-10-08T22:01:31.596Z,6.43
2022-10-08T22:04:19.601Z,5.97
2022-10-08T22:06:55.496Z,6.30
2022-10-08T22:09:30.012Z,5.40
2022-10-08T22:12:02.300Z,5.10
2022-10-08T22:14:33.994Z,5.80
2022-10-08T22:17:05.716Z,4.93
2022-10-08T22:19:37.517Z,4.87
2022-10-08T22:22:09.312Z,5.37
2022-10-08T22:24:41.011Z,3.83
2022-10-08T22:27:13.700Z,5.63
2022-10-08T22:29:45.620Z,4.83
2022-10-08T22:32:18.647Z,5.57
2022-10-08T22:34:50.495Z,5.10
2022-10-08T22:37:22.161Z,4.67
2022-10-08T22:39:53.837Z,5.37
2022-10-08T22:42:25.571Z,5.33
2022-10-08T22:44:58.001Z,4.53
2022-10-08T22:47:31.796Z,5.30
2022-10-08T22:50:04.096Z,5.37
2022-10-08T22:52:36.818Z,6.30
2022-10-08T22:55:08.606Z,4.93
2022-10-08T22:57:40.773Z,5.67
2022-10-08T23:00:13.172Z,6.83
2022-10-08T23:02:44.864Z,5.63
2022-10-08T23:05:16.731Z,5.20
2022-10-08T23:07:48.433Z,5.30
2022-10-08T23:10:20.085Z,5.00
2022-10-08T23:12:54.844Z,5.53
2022-10-08T23:15:27.560Z,6.03
2022-10-08T23:17:59.276Z,5.90
2022-10-08T23:20:30.973Z,5.70
2022-10-08T23:23:02.747Z,5.00
2022-10-08T23:25:34.434Z,5.00
2022-10-08T23:28:06.114Z,5.13
2022-10-08T23:30:44.625Z,4.87
2022-10-08T23:33:16.549Z,5.83
2022-10-08T23:35:55.691Z,4.90
2022-10-08T23:38:27.496Z,4.70
2022-10-08T23:41:01.030Z,4.40
2022-10-08T23:43:37.579Z,5.37
2022-10-08T23:46:10.919Z,4.70
2022-10-08T23:48:43.452Z,5.37
2022-10-08T23:51:16.367Z,4.93
2022-10-08T23:53:50.631Z,4.87
2022-10-08T23:56:22.670Z,4.90
2022-10-08T23:58:54.445Z,4.40
